This is the latest recevied weather packets stored in our database for station/object CA4LJZ-10. If no packets are shown the sender has not sent any weather packets the latest 10 day(s).
| Time | Temp. | Humidity | Pressure | Rain* | Wind** | Luminosity | Snow |
|---|---|---|---|---|---|---|---|
| 1788247506 | 18.89° C | 44% | 958.9 hPa | - | - | - | - |
| 1788246605 | 18.89° C | 44% | 958.7 hPa | - | - | - | - |
| 1788245704 | 19.44° C | 42% | 959.2 hPa | - | - | - | - |
| 1788244803 | 18.89° C | 43% | 959.2 hPa | - | - | - | - |
| 1788243902 | 20.56° C | 44% | 959.4 hPa | - | - | - | - |
| 1788243023 | 18.89° C | 44% | 959.5 hPa | - | - | - | - |
| 1788242121 | 18.89° C | 44% | 959.5 hPa | - | - | - | - |
| 1788241220 | 19.44° C | 43% | 959.7 hPa | - | - | - | - |
| 1788240320 | 19.44° C | 43% | 959.9 hPa | - | - | - | - |
| 1788239419 | 19.44° C | 44% | 959.9 hPa | - | - | - | - |
| 1788238518 | 18.89° C | 44% | 960 hPa | - | - | - | - |
| 1788237617 | 19.44° C | 43% | 959.9 hPa | - | - | - | - |
| 1788236716 | 19.44° C | 45% | 960.2 hPa | - | - | - | - |
| 1788222302 | 23.33° C | 38% | 959.5 hPa | - | - | - | - |
| 1788218720 | 23.33° C | 34% | 959.7 hPa | - | - | - | - |
| 1788214215 | 26.67° C | 27% | 959.7 hPa | - | - | - | - |
| 1788213314 | 27.22° C | 27% | 959.7 hPa | - | - | - | - |
| 1788211513 | 28.33° C | 25% | 959.7 hPa | - | - | - | - |
| 1788210612 | 28.89° C | 24% | 959.6 hPa | - | - | - | - |
| 1788209711 | 28.89° C | 25% | 959.6 hPa | - | - | - | - |
| 1788208810 | 28.89° C | 25% | 959.7 hPa | - | - | - | - |
| 1788207909 | 28.33° C | 25% | 959.7 hPa | - | - | - | - |
| 1788207008 | 27.78° C | 25% | 959.8 hPa | - | - | - | - |
| 1788206107 | 27.22° C | 24% | 959.9 hPa | - | - | - | - |
| 1788205206 | 27.78° C | 24% | 959.9 hPa | - | - | - | - |
* Rain since midnight (hover to see other rain measurements)
** Current wind speed in m/s (hover to see current wind gust speed)